sensor_id;sensor_type;location;lat;lon;timestamp;pressure;altitude;pressure_sealevel;temperature;humidity
77871;BME280;67067;46.850;7.578;2023-12-04T00:00:58;95385.44;;;-9.89;51.16
77871;BME280;67067;46.850;7.578;2023-12-04T00:02:00;95381.94;;;-9.88;51.31
77871;BME280;67067;46.850;7.578;2023-12-04T00:03:02;95382.72;;;-9.88;51.20
77871;BME280;67067;46.850;7.578;2023-12-04T00:04:06;95385.22;;;-9.97;51.45
77871;BME280;67067;46.850;7.578;2023-12-04T00:05:08;95379.16;;;-9.96;51.28
77871;BME280;67067;46.850;7.578;2023-12-04T00:06:11;95376.22;;;-9.92;50.99
77871;BME280;67067;46.850;7.578;2023-12-04T00:07:13;95370.16;;;-9.91;51.02
77871;BME280;67067;46.850;7.578;2023-12-04T00:08:14;95371.78;;;-9.90;50.96
77871;BME280;67067;46.850;7.578;2023-12-04T00:09:16;95372.88;;;-9.92;50.76
77871;BME280;67067;46.850;7.578;2023-12-04T00:10:18;95379.06;;;-10.06;50.61
77871;BME280;67067;46.850;7.578;2023-12-04T00:11:20;95377.66;;;-10.10;50.67
77871;BME280;67067;46.850;7.578;2023-12-04T00:12:21;95370.47;;;-10.17;50.43
77871;BME280;67067;46.850;7.578;2023-12-04T00:13:23;95380.69;;;-10.17;50.47
77871;BME280;67067;46.850;7.578;2023-12-04T00:14:25;95373.94;;;-10.18;50.63
77871;BME280;67067;46.850;7.578;2023-12-04T00:15:28;95376.75;;;-10.21;50.68
77871;BME280;67067;46.850;7.578;2023-12-04T00:16:33;95373.94;;;-10.18;50.60
77871;BME280;67067;46.850;7.578;2023-12-04T00:17:36;95367.06;;;-10.17;50.69
77871;BME280;67067;46.850;7.578;2023-12-04T00:18:41;95362.78;;;-10.17;50.93
77871;BME280;67067;46.850;7.578;2023-12-04T00:19:43;95368.50;;;-10.13;50.79
77871;BME280;67067;46.850;7.578;2023-12-04T00:20:45;95365.13;;;-10.25;50.91
77871;BME280;67067;46.850;7.578;2023-12-04T00:21:46;95364.88;;;-10.22;51.02
77871;BME280;67067;46.850;7.578;2023-12-04T00:22:48;95364.66;;;-10.19;50.90
77871;BME280;67067;46.850;7.578;2023-12-04T00:23:52;95355.19;;;-10.18;50.86
77871;BME280;67067;46.850;7.578;2023-12-04T00:24:54;95354.16;;;-10.16;50.82
77871;BME280;67067;46.850;7.578;2023-12-04T00:25:58;95361.84;;;-10.16;50.97
77871;BME280;67067;46.850;7.578;2023-12-04T00:26:59;95356.75;;;-10.27;50.97
77871;BME280;67067;46.850;7.578;2023-12-04T00:28:01;95365.56;;;-10.20;51.02
77871;BME280;67067;46.850;7.578;2023-12-04T00:29:03;95364.75;;;-10.20;50.90
77871;BME280;67067;46.850;7.578;2023-12-04T00:30:07;95365.69;;;-10.21;50.84
77871;BME280;67067;46.850;7.578;2023-12-04T00:31:09;95357.91;;;-10.20;50.92
77871;BME280;67067;46.850;7.578;2023-12-04T00:32:12;95361.25;;;-10.19;51.03
77871;BME280;67067;46.850;7.578;2023-12-04T00:33:14;95362.78;;;-10.17;50.79
77871;BME280;67067;46.850;7.578;2023-12-04T00:34:18;95363.56;;;-10.16;50.91
77871;BME280;67067;46.850;7.578;2023-12-04T00:35:23;95366.88;;;-10.14;50.82
77871;BME280;67067;46.850;7.578;2023-12-04T00:36:24;95362.53;;;-10.13;51.03
77871;BME280;67067;46.850;7.578;2023-12-04T00:37:26;95361.38;;;-10.21;51.39
77871;BME280;67067;46.850;7.578;2023-12-04T00:38:28;95368.25;;;-10.10;51.00
77871;BME280;67067;46.850;7.578;2023-12-04T00:39:30;95366.25;;;-10.06;51.05
77871;BME280;67067;46.850;7.578;2023-12-04T00:40:33;95361.94;;;-10.06;50.97
77871;BME280;67067;46.850;7.578;2023-12-04T00:41:34;95367.78;;;-10.04;51.13
77871;BME280;67067;46.850;7.578;2023-12-04T00:42:39;95361.81;;;-10.04;51.24
77871;BME280;67067;46.850;7.578;2023-12-04T00:43:40;95361.81;;;-10.04;51.33
77871;BME280;67067;46.850;7.578;2023-12-04T00:44:44;95366.00;;;-10.03;51.52
77871;BME280;67067;46.850;7.578;2023-12-04T00:45:48;95350.19;;;-10.08;51.49
77871;BME280;67067;46.850;7.578;2023-12-04T00:46:50;95354.13;;;-10.04;51.61
77871;BME280;67067;46.850;7.578;2023-12-04T00:47:52;95350.53;;;-10.02;51.62
77871;BME280;67067;46.850;7.578;2023-12-04T00:48:56;95351.09;;;-9.98;51.86
77871;BME280;67067;46.850;7.578;2023-12-04T00:49:58;95348.28;;;-9.95;51.69
77871;BME280;67067;46.850;7.578;2023-12-04T00:51:00;95341.44;;;-9.94;51.69
77871;BME280;67067;46.850;7.578;2023-12-04T00:52:02;95343.84;;;-9.93;51.80
77871;BME280;67067;46.850;7.578;2023-12-04T00:53:04;95347.09;;;-9.91;51.77
77871;BME280;67067;46.850;7.578;2023-12-04T00:54:05;95348.66;;;-9.99;51.75
77871;BME280;67067;46.850;7.578;2023-12-04T00:55:09;95346.41;;;-9.93;51.44
77871;BME280;67067;46.850;7.578;2023-12-04T00:56:11;95340.34;;;-9.92;51.46
77871;BME280;67067;46.850;7.578;2023-12-04T00:57:13;95344.53;;;-9.91;51.42
77871;BME280;67067;46.850;7.578;2023-12-04T00:58:17;95341.19;;;-9.91;51.46
77871;BME280;67067;46.850;7.578;2023-12-04T00:59:22;95334.06;;;-9.88;51.50
77871;BME280;67067;46.850;7.578;2023-12-04T01:00:23;95325.94;;;-9.93;51.39
77871;BME280;67067;46.850;7.578;2023-12-04T01:01:25;95328.94;;;-9.88;51.40
77871;BME280;67067;46.850;7.578;2023-12-04T01:02:27;95328.94;;;-9.88;51.40
77871;BME280;67067;46.850;7.578;2023-12-04T01:03:29;95328.25;;;-9.90;51.27
77871;BME280;67067;46.850;7.578;2023-12-04T01:04:34;95320.50;;;-9.99;51.55
77871;BME280;67067;46.850;7.578;2023-12-04T01:05:39;95326.75;;;-9.92;51.35
77871;BME280;67067;46.850;7.578;2023-12-04T01:06:41;95319.66;;;-10.00;51.37
77871;BME280;67067;46.850;7.578;2023-12-04T01:07:42;95317.44;;;-9.93;51.34
77871;BME280;67067;46.850;7.578;2023-12-04T01:08:44;95318.47;;;-9.96;51.54
77871;BME280;67067;46.850;7.578;2023-12-04T01:09:46;95323.38;;;-9.93;51.30
77871;BME280;67067;46.850;7.578;2023-12-04T01:10:48;95322.31;;;-9.90;50.96
77871;BME280;67067;46.850;7.578;2023-12-04T01:11:53;95306.13;;;-9.91;51.00
77871;BME280;67067;46.850;7.578;2023-12-04T01:12:57;95307.31;;;-9.95;50.91
77871;BME280;67067;46.850;7.578;2023-12-04T01:13:58;95304.19;;;-9.98;50.71
77871;BME280;67067;46.850;7.578;2023-12-04T01:15:01;95309.63;;;-9.92;50.73
77871;BME280;67067;46.850;7.578;2023-12-04T01:16:04;95301.00;;;-9.91;50.86
77871;BME280;67067;46.850;7.578;2023-12-04T01:17:06;95298.88;;;-9.86;50.90
77871;BME280;67067;46.850;7.578;2023-12-04T01:18:08;95298.63;;;-9.82;51.11
77871;BME280;67067;46.850;7.578;2023-12-04T01:19:10;95296.53;;;-9.77;51.22
77871;BME280;67067;46.850;7.578;2023-12-04T01:20:14;95299.56;;;-9.72;51.31
77871;BME280;67067;46.850;7.578;2023-12-04T01:21:19;95304.69;;;-9.72;51.09
77871;BME280;67067;46.850;7.578;2023-12-04T01:22:21;95301.19;;;-9.71;51.13
77871;BME280;67067;46.850;7.578;2023-12-04T01:23:22;95306.31;;;-9.71;51.14
77871;BME280;67067;46.850;7.578;2023-12-04T01:24:24;95313.06;;;-9.70;50.97
77871;BME280;67067;46.850;7.578;2023-12-04T01:25:26;95313.50;;;-9.65;51.05
77871;BME280;67067;46.850;7.578;2023-12-04T01:26:28;95303.69;;;-9.60;51.11
77871;BME280;67067;46.850;7.578;2023-12-04T01:27:29;95303.53;;;-9.58;51.16
77871;BME280;67067;46.850;7.578;2023-12-04T01:28:31;95303.28;;;-9.55;51.06
77871;BME280;67067;46.850;7.578;2023-12-04T01:29:33;95303.19;;;-9.53;51.09
77871;BME280;67067;46.850;7.578;2023-12-04T01:30:38;95295.25;;;-9.50;51.01
77871;BME280;67067;46.850;7.578;2023-12-04T01:31:40;95294.31;;;-9.49;51.13
77871;BME280;67067;46.850;7.578;2023-12-04T01:32:42;95285.94;;;-9.51;51.24
77871;BME280;67067;46.850;7.578;2023-12-04T01:33:44;95291.06;;;-9.51;51.19
77871;BME280;67067;46.850;7.578;2023-12-04T01:34:48;95285.00;;;-9.50;51.25
77871;BME280;67067;46.850;7.578;2023-12-04T01:35:50;95277.16;;;-9.49;51.26
77871;BME280;67067;46.850;7.578;2023-12-04T01:36:54;95272.44;;;-9.53;51.45
77871;BME280;67067;46.850;7.578;2023-12-04T01:37:56;95274.06;;;-9.52;51.70
77871;BME280;67067;46.850;7.578;2023-12-04T01:38:58;95265.44;;;-9.51;51.67
77871;BME280;67067;46.850;7.578;2023-12-04T01:40:02;95265.19;;;-9.48;51.79
77871;BME280;67067;46.850;7.578;2023-12-04T01:41:08;95273.56;;;-9.46;51.88
77871;BME280;67067;46.850;7.578;2023-12-04T01:42:09;95270.41;;;-9.50;52.05
77871;BME280;67067;46.850;7.578;2023-12-04T01:43:12;95262.25;;;-9.44;52.07
77871;BME280;67067;46.850;7.578;2023-12-04T01:44:14;95271.41;;;-9.41;51.89
77871;BME280;67067;46.850;7.578;2023-12-04T01:45:18;95278.88;;;-9.38;51.73
77871;BME280;67067;46.850;7.578;2023-12-04T01:46:23;95273.38;;;-9.33;51.67
77871;BME280;67067;46.850;7.578;2023-12-04T01:47:25;95275.00;;;-9.32;51.73
77871;BME280;67067;46.850;7.578;2023-12-04T01:48:28;95276.91;;;-9.24;51.84
77871;BME280;67067;46.850;7.578;2023-12-04T01:49:30;95269.09;;;-9.23;51.64
77871;BME280;67067;46.850;7.578;2023-12-04T01:50:33;95264.50;;;-9.19;51.63
77871;BME280;67067;46.850;7.578;2023-12-04T01:51:36;95260.78;;;-9.15;51.67
77871;BME280;67067;46.850;7.578;2023-12-04T01:52:40;95262.16;;;-9.11;51.55
77871;BME280;67067;46.850;7.578;2023-12-04T01:53:42;95261.22;;;-9.10;51.50
77871;BME280;67067;46.850;7.578;2023-12-04T01:54:44;95260.81;;;-9.05;51.37
77871;BME280;67067;46.850;7.578;2023-12-04T01:55:46;95262.59;;;-9.06;51.36
77871;BME280;67067;46.850;7.578;2023-12-04T01:56:48;95262.44;;;-9.04;51.37
77871;BME280;67067;46.850;7.578;2023-12-04T01:57:50;95268.13;;;-9.01;51.36
77871;BME280;67067;46.850;7.578;2023-12-04T01:58:54;95262.75;;;-8.97;51.40
77871;BME280;67067;46.850;7.578;2023-12-04T01:59:56;95262.34;;;-8.93;51.56
77871;BME280;67067;46.850;7.578;2023-12-04T02:12:37;95261.75;;;-7.95;51.35
77871;BME280;67067;46.850;7.578;2023-12-04T02:13:39;95262.72;;;-7.96;51.83
77871;BME280;67067;46.850;7.578;2023-12-04T02:14:41;95265.44;;;-7.98;51.69
77871;BME280;67067;46.850;7.578;2023-12-04T02:15:44;95256.50;;;-7.93;51.85
77871;BME280;67067;46.850;7.578;2023-12-04T02:16:47;95257.44;;;-7.94;51.80
77871;BME280;67067;46.850;7.578;2023-12-04T02:17:52;95256.22;;;-7.90;51.94
77871;BME280;67067;46.850;7.578;2023-12-04T02:18:54;95251.63;;;-7.87;52.03
77871;BME280;67067;46.850;7.578;2023-12-04T02:19:56;95242.72;;;-7.83;52.25
77871;BME280;67067;46.850;7.578;2023-12-04T02:21:00;95252.44;;;-7.76;52.05
77871;BME280;67067;46.850;7.578;2023-12-04T02:22:02;95248.50;;;-7.71;52.10
77871;BME280;67067;46.850;7.578;2023-12-04T02:23:04;95254.03;;;-7.65;52.00
77871;BME280;67067;46.850;7.578;2023-12-04T02:24:06;95246.88;;;-7.62;52.02
77871;BME280;67067;46.850;7.578;2023-12-04T02:25:09;95243.22;;;-7.59;51.97
77871;BME280;67067;46.850;7.578;2023-12-04T02:26:44;95242.69;;;-7.63;51.99
77871;BME280;67067;46.850;7.578;2023-12-04T02:27:52;95245.25;;;-7.73;51.55
77871;BME280;67067;46.850;7.578;2023-12-04T02:28:58;95247.97;;;-7.74;51.33
77871;BME280;67067;46.850;7.578;2023-12-04T02:30:05;95246.06;;;-7.82;51.00
77871;BME280;67067;46.850;7.578;2023-12-04T02:31:10;95248.38;;;-7.89;50.84
77871;BME280;67067;46.850;7.578;2023-12-04T02:32:15;95250.53;;;-7.94;50.58
77871;BME280;67067;46.850;7.578;2023-12-04T02:33:23;95256.22;;;-8.00;50.33
77871;BME280;67067;46.850;7.578;2023-12-04T02:34:27;95257.56;;;-8.06;50.24
77871;BME280;67067;46.850;7.578;2023-12-04T02:35:33;95257.28;;;-8.13;50.19
77871;BME280;67067;46.850;7.578;2023-12-04T02:36:36;95257.28;;;-8.13;50.12
77871;BME280;67067;46.850;7.578;2023-12-04T02:37:39;95255.66;;;-8.14;50.04
77871;BME280;67067;46.850;7.578;2023-12-04T02:38:42;95251.22;;;-8.12;49.76
77871;BME280;67067;46.850;7.578;2023-12-04T02:39:44;95238.38;;;-8.12;49.69
77871;BME280;67067;46.850;7.578;2023-12-04T02:40:45;95245.28;;;-8.12;49.76
77871;BME280;67067;46.850;7.578;2023-12-04T02:41:48;95242.69;;;-8.12;49.84
77871;BME280;67067;46.850;7.578;2023-12-04T02:42:52;95235.13;;;-8.14;49.67
77871;BME280;67067;46.850;7.578;2023-12-04T02:43:54;95238.06;;;-8.18;49.68
77871;BME280;67067;46.850;7.578;2023-12-04T02:44:58;95227.28;;;-8.22;49.59
77871;BME280;67067;46.850;7.578;2023-12-04T02:46:00;95222.94;;;-8.21;49.82
77871;BME280;67067;46.850;7.578;2023-12-04T02:47:02;95225.66;;;-8.23;49.77
77871;BME280;67067;46.850;7.578;2023-12-04T02:48:04;95232.41;;;-8.22;49.86
77871;BME280;67067;46.850;7.578;2023-12-04T02:49:06;95228.91;;;-8.21;50.08
77871;BME280;67067;46.850;7.578;2023-12-04T02:50:08;95227.28;;;-8.22;50.20
77871;BME280;67067;46.850;7.578;2023-12-04T02:51:12;95229.84;;;-8.22;50.14
77871;BME280;67067;46.850;7.578;2023-12-04T02:52:14;95233.88;;;-8.19;50.31
77871;BME280;67067;46.850;7.578;2023-12-04T02:53:16;95223.50;;;-8.18;50.40
77871;BME280;67067;46.850;7.578;2023-12-04T02:54:17;95222.41;;;-8.25;50.55
77871;BME280;67067;46.850;7.578;2023-12-04T02:55:19;95224.84;;;-8.14;50.22
77871;BME280;67067;46.850;7.578;2023-12-04T02:56:21;95220.09;;;-8.18;50.43
77871;BME280;67067;46.850;7.578;2023-12-04T02:57:23;95218.06;;;-8.15;50.37
77871;BME280;67067;46.850;7.578;2023-12-04T02:58:24;95221.31;;;-8.13;50.51
77871;BME280;67067;46.850;7.578;2023-12-04T02:59:28;95221.06;;;-8.09;50.22
77871;BME280;67067;46.850;7.578;2023-12-04T03:00:30;95213.75;;;-8.04;50.26
77871;BME280;67067;46.850;7.578;2023-12-04T03:01:35;95221.19;;;-8.01;50.02
77871;BME280;67067;46.850;7.578;2023-12-04T03:02:36;95216.72;;;-7.99;50.23
77871;BME280;67067;46.850;7.578;2023-12-04T03:03:38;95209.41;;;-7.94;50.06
77871;BME280;67067;46.850;7.578;2023-12-04T03:04:40;95204.44;;;-7.95;49.99
77871;BME280;67067;46.850;7.578;2023-12-04T03:05:41;95203.19;;;-8.01;50.03
77871;BME280;67067;46.850;7.578;2023-12-04T03:06:45;95207.28;;;-7.99;50.16
77871;BME280;67067;46.850;7.578;2023-12-04T03:07:50;95199.41;;;-7.97;50.27
77871;BME280;67067;46.850;7.578;2023-12-04T03:08:52;95195.91;;;-7.96;50.10
77871;BME280;67067;46.850;7.578;2023-12-04T03:09:54;95192.25;;;-8.03;50.26
77871;BME280;67067;46.850;7.578;2023-12-04T03:10:58;95186.28;;;-7.94;50.23
77871;BME280;67067;46.850;7.578;2023-12-04T03:12:02;95188.59;;;-7.91;50.42
77871;BME280;67067;46.850;7.578;2023-12-04T03:13:04;95187.34;;;-7.87;50.57
77871;BME280;67067;46.850;7.578;2023-12-04T03:14:06;95182.88;;;-7.85;50.60
77871;BME280;67067;46.850;7.578;2023-12-04T03:15:08;95177.06;;;-7.77;50.44
77871;BME280;67067;46.850;7.578;2023-12-04T03:16:15;95187.91;;;-7.73;50.51
77871;BME280;67067;46.850;7.578;2023-12-04T03:17:18;95187.63;;;-7.70;50.47
77871;BME280;67067;46.850;7.578;2023-12-04T03:18:22;95187.63;;;-7.70;50.50
77871;BME280;67067;46.850;7.578;2023-12-04T03:19:24;95182.34;;;-7.69;50.31
77871;BME280;67067;46.850;7.578;2023-12-04T03:20:26;95181.25;;;-7.66;50.56
77871;BME280;67067;46.850;7.578;2023-12-04T03:21:28;95168.69;;;-7.69;50.48
77871;BME280;67067;46.850;7.578;2023-12-04T03:22:32;95177.19;;;-7.59;50.65
77871;BME280;67067;46.850;7.578;2023-12-04T03:23:34;95176.63;;;-7.53;50.44
77871;BME280;67067;46.850;7.578;2023-12-04T03:24:35;95170.94;;;-7.56;50.37
77871;BME280;67067;46.850;7.578;2023-12-04T03:25:40;95165.78;;;-7.46;50.56
77871;BME280;67067;46.850;7.578;2023-12-04T03:26:42;95179.97;;;-7.42;50.45
77871;BME280;67067;46.850;7.578;2023-12-04T03:27:44;95170.81;;;-7.55;50.41
77871;BME280;67067;46.850;7.578;2023-12-04T03:28:48;95161.47;;;-7.46;50.47
77871;BME280;67067;46.850;7.578;2023-12-04T03:29:50;95163.06;;;-7.45;50.57
77871;BME280;67067;46.850;7.578;2023-12-04T03:30:51;95161.59;;;-7.57;50.59
77871;BME280;67067;46.850;7.578;2023-12-04T03:31:53;95159.84;;;-7.47;50.60
77871;BME280;67067;46.850;7.578;2023-12-04T03:32:55;95155.66;;;-7.48;50.66
77871;BME280;67067;46.850;7.578;2023-12-04T03:33:57;95162.25;;;-7.45;50.74
77871;BME280;67067;46.850;7.578;2023-12-04T03:34:58;95166.31;;;-7.43;50.76
77871;BME280;67067;46.850;7.578;2023-12-04T03:36:00;95158.72;;;-7.44;50.83
77871;BME280;67067;46.850;7.578;2023-12-04T03:37:04;95156.69;;;-7.41;50.76
77871;BME280;67067;46.850;7.578;2023-12-04T03:38:06;95154.91;;;-7.40;51.00
77871;BME280;67067;46.850;7.578;2023-12-04T03:39:08;95161.56;;;-7.38;50.88
77871;BME280;67067;46.850;7.578;2023-12-04T03:40:09;95166.44;;;-7.44;51.02
77871;BME280;67067;46.850;7.578;2023-12-04T03:41:15;95159.50;;;-7.34;50.90
77871;BME280;67067;46.850;7.578;2023-12-04T03:42:17;95151.22;;;-7.28;50.80
77871;BME280;67067;46.850;7.578;2023-12-04T03:43:19;95152.44;;;-7.22;50.85
77871;BME280;67067;46.850;7.578;2023-12-04T03:44:25;95156.22;;;-7.16;50.58
77871;BME280;67067;46.850;7.578;2023-12-04T03:45:26;95154.97;;;-7.12;50.68
77871;BME280;67067;46.850;7.578;2023-12-04T03:46:28;95152.78;;;-7.07;50.70
77871;BME280;67067;46.850;7.578;2023-12-04T03:47:30;95157.75;;;-7.05;50.58
77871;BME280;67067;46.850;7.578;2023-12-04T03:48:32;95156.97;;;-7.06;50.45
77871;BME280;67067;46.850;7.578;2023-12-04T03:49:34;95165.66;;;-7.07;50.43
77871;BME280;67067;46.850;7.578;2023-12-04T03:50:36;95157.91;;;-7.07;50.67
77871;BME280;67067;46.850;7.578;2023-12-04T03:51:38;95155.06;;;-7.04;50.56
77871;BME280;67067;46.850;7.578;2023-12-04T03:52:39;95151.09;;;-6.98;50.74
77871;BME280;67067;46.850;7.578;2023-12-04T03:53:43;95155.00;;;-6.94;50.50
77871;BME280;67067;46.850;7.578;2023-12-04T03:54:44;95152.28;;;-6.92;50.66
77871;BME280;67067;46.850;7.578;2023-12-04T03:55:47;95153.63;;;-6.88;50.51
77871;BME280;67067;46.850;7.578;2023-12-04T03:56:49;95148.00;;;-7.02;50.88
77871;BME280;67067;46.850;7.578;2023-12-04T03:57:52;95149.13;;;-6.86;50.75
77871;BME280;67067;46.850;7.578;2023-12-04T03:58:54;95148.84;;;-6.83;50.60
77871;BME280;67067;46.850;7.578;2023-12-04T03:59:55;95144.66;;;-6.84;50.68
77871;BME280;67067;46.850;7.578;2023-12-04T04:00:57;95136.50;;;-6.80;50.83
77871;BME280;67067;46.850;7.578;2023-12-04T04:01:59;95126.69;;;-6.94;50.80
77871;BME280;67067;46.850;7.578;2023-12-04T04:03:01;95132.56;;;-6.84;50.89
77871;BME280;67067;46.850;7.578;2023-12-04T04:04:03;95130.53;;;-6.80;50.74
77871;BME280;67067;46.850;7.578;2023-12-04T04:05:05;95131.06;;;-6.76;50.76
77871;BME280;67067;46.850;7.578;2023-12-04T04:06:09;95131.66;;;-6.83;50.92
77871;BME280;67067;46.850;7.578;2023-12-04T04:07:11;95127.59;;;-6.85;51.08
77871;BME280;67067;46.850;7.578;2023-12-04T04:08:13;95130.69;;;-6.82;51.16
77871;BME280;67067;46.850;7.578;2023-12-04T04:09:14;95127.50;;;-6.93;51.28
77871;BME280;67067;46.850;7.578;2023-12-04T04:10:17;95123.25;;;-6.85;51.08
77871;BME280;67067;46.850;7.578;2023-12-04T04:11:19;95127.06;;;-6.89;51.28
77871;BME280;67067;46.850;7.578;2023-12-04T04:12:20;95127.00;;;-6.79;51.08
77871;BME280;67067;46.850;7.578;2023-12-04T04:13:22;95130.53;;;-6.80;51.08
77871;BME280;67067;46.850;7.578;2023-12-04T04:14:24;95137.31;;;-6.79;50.88
77871;BME280;67067;46.850;7.578;2023-12-04T04:15:26;95128.34;;;-6.75;50.56
77871;BME280;67067;46.850;7.578;2023-12-04T04:16:28;95126.72;;;-6.76;50.44
77871;BME280;67067;46.850;7.578;2023-12-04T04:17:32;95123.47;;;-6.78;50.26
77871;BME280;67067;46.850;7.578;2023-12-04T04:18:35;95124.13;;;-6.76;50.21
77871;BME280;67067;46.850;7.578;2023-12-04T04:19:37;95121.56;;;-6.76;50.20
77871;BME280;67067;46.850;7.578;2023-12-04T04:20:38;95124.84;;;-6.84;50.21
77871;BME280;67067;46.850;7.578;2023-12-04T04:21:40;95129.59;;;-6.79;50.08
77871;BME280;67067;46.850;7.578;2023-12-04T04:22:42;95131.91;;;-6.86;49.99
77871;BME280;67067;46.850;7.578;2023-12-04T04:23:44;95130.88;;;-6.93;50.12
77871;BME280;67067;46.850;7.578;2023-12-04T04:24:49;95125.22;;;-6.97;50.11
77871;BME280;67067;46.850;7.578;2023-12-04T04:25:50;95134.56;;;-6.96;50.22
77871;BME280;67067;46.850;7.578;2023-12-04T04:26:52;95137.94;;;-6.95;50.24
77871;BME280;67067;46.850;7.578;2023-12-04T04:27:54;95129.75;;;-7.09;50.27
77871;BME280;67067;46.850;7.578;2023-12-04T04:28:56;95133.38;;;-7.01;50.23
77871;BME280;67067;46.850;7.578;2023-12-04T04:30:00;95141.53;;;-7.06;50.29
77871;BME280;67067;46.850;7.578;2023-12-04T04:31:01;95136.47;;;-6.98;50.20
77871;BME280;67067;46.850;7.578;2023-12-04T04:32:07;95135.22;;;-6.93;50.03
77871;BME280;67067;46.850;7.578;2023-12-04T04:33:10;95135.72;;;-6.90;50.20
77871;BME280;67067;46.850;7.578;2023-12-04T04:34:12;95135.59;;;-6.88;50.08
77871;BME280;67067;46.850;7.578;2023-12-04T04:35:14;95129.88;;;-6.82;49.99
77871;BME280;67067;46.850;7.578;2023-12-04T04:36:16;95129.88;;;-6.82;50.18
77871;BME280;67067;46.850;7.578;2023-12-04T04:37:19;95121.91;;;-6.89;50.28
77871;BME280;67067;46.850;7.578;2023-12-04T04:38:23;95123.25;;;-6.85;50.22
77871;BME280;67067;46.850;7.578;2023-12-04T04:39:24;95130.81;;;-6.83;50.05
77871;BME280;67067;46.850;7.578;2023-12-04T04:40:26;95133.13;;;-6.80;50.15
77871;BME280;67067;46.850;7.578;2023-12-04T04:41:28;95130.41;;;-6.78;50.04
77871;BME280;67067;46.850;7.578;2023-12-04T04:42:29;95124.06;;;-6.84;50.36
77871;BME280;67067;46.850;7.578;2023-12-04T04:43:31;95120.91;;;-6.78;50.33
77871;BME280;67067;46.850;7.578;2023-12-04T04:44:34;95118.03;;;-6.75;50.51
77871;BME280;67067;46.850;7.578;2023-12-04T04:45:36;95113.72;;;-6.74;50.48
77871;BME280;67067;46.850;7.578;2023-12-04T04:46:37;95110.22;;;-6.83;50.70
77871;BME280;67067;46.850;7.578;2023-12-04T04:47:42;95109.94;;;-6.80;50.63
77871;BME280;67067;46.850;7.578;2023-12-04T04:48:44;95105.91;;;-6.83;50.82
77871;BME280;67067;46.850;7.578;2023-12-04T04:49:45;95110.56;;;-6.96;51.08
77871;BME280;67067;46.850;7.578;2023-12-04T04:50:47;95106.91;;;-6.93;51.16
77871;BME280;67067;46.850;7.578;2023-12-04T04:51:49;95109.31;;;-7.10;51.71
77871;BME280;67067;46.850;7.578;2023-12-04T04:52:50;95108.06;;;-7.06;51.57
77871;BME280;67067;46.850;7.578;2023-12-04T04:53:52;95114.75;;;-7.13;51.59
77871;BME280;67067;46.850;7.578;2023-12-04T04:54:53;95104.38;;;-7.03;51.42
77871;BME280;67067;46.850;7.578;2023-12-04T04:55:55;95116.53;;;-6.96;51.24
77871;BME280;67067;46.850;7.578;2023-12-04T04:56:57;95111.69;;;-6.99;51.27
77871;BME280;67067;46.850;7.578;2023-12-04T04:57:59;95122.19;;;-6.92;51.29
77871;BME280;67067;46.850;7.578;2023-12-04T04:59:01;95121.97;;;-6.99;51.42
77871;BME280;67067;46.850;7.578;2023-12-04T05:00:07;95118.47;;;-6.98;51.39
77871;BME280;67067;46.850;7.578;2023-12-04T05:02:17;95108.31;;;-7.27;51.74
77871;BME280;67067;46.850;7.578;2023-12-04T05:03:19;95108.34;;;-7.37;52.28
77871;BME280;67067;46.850;7.578;2023-12-04T05:04:22;95109.69;;;-7.33;52.50
77871;BME280;67067;46.850;7.578;2023-12-04T05:05:27;95117.78;;;-7.28;52.35
77871;BME280;67067;46.850;7.578;2023-12-04T05:06:29;95115.03;;;-7.16;52.22
77871;BME280;67067;46.850;7.578;2023-12-04T05:07:34;95107.25;;;-7.06;52.08
77871;BME280;67067;46.850;7.578;2023-12-04T05:08:36;95106.16;;;-7.04;52.14
77871;BME280;67067;46.850;7.578;2023-12-04T05:09:37;95102.44;;;-6.91;51.93
77871;BME280;67067;46.850;7.578;2023-12-04T05:10:39;95086.09;;;-6.82;51.73
77871;BME280;67067;46.850;7.578;2023-12-04T05:11:41;95086.47;;;-6.77;51.54
77871;BME280;67067;46.850;7.578;2023-12-04T05:12:43;95095.44;;;-6.81;51.75
77871;BME280;67067;46.850;7.578;2023-12-04T05:13:45;95104.22;;;-6.74;51.73
77871;BME280;67067;46.850;7.578;2023-12-04T05:14:46;95098.94;;;-6.72;51.83
77871;BME280;67067;46.850;7.578;2023-12-04T05:15:48;95086.13;;;-6.64;51.78
77871;BME280;67067;46.850;7.578;2023-12-04T05:16:50;95076.03;;;-6.57;51.78
77871;BME280;67067;46.850;7.578;2023-12-04T05:17:53;95059.41;;;-6.63;52.07
77871;BME280;67067;46.850;7.578;2023-12-04T05:18:55;95057.56;;;-6.53;51.71
77871;BME280;67067;46.850;7.578;2023-12-04T05:19:57;95055.50;;;-6.49;51.81
77871;BME280;67067;46.850;7.578;2023-12-04T05:20:59;95063.59;;;-6.44;51.71
77871;BME280;67067;46.850;7.578;2023-12-04T05:22:00;95063.91;;;-6.47;51.92
77871;BME280;67067;46.850;7.578;2023-12-04T05:23:04;95073.91;;;-6.44;51.92
77871;BME280;67067;46.850;7.578;2023-12-04T05:24:06;95084.28;;;-6.36;51.93
77871;BME280;67067;46.850;7.578;2023-12-04T05:25:08;95087.94;;;-6.38;52.05
77871;BME280;67067;46.850;7.578;2023-12-04T05:26:11;95086.69;;;-6.34;51.85
77871;BME280;67067;46.850;7.578;2023-12-04T05:27:13;95081.75;;;-6.27;51.72
77871;BME280;67067;46.850;7.578;2023-12-04T05:28:15;95077.56;;;-6.28;51.80
77871;BME280;67067;46.850;7.578;2023-12-04T05:29:17;95065.03;;;-6.23;51.56
77871;BME280;67067;46.850;7.578;2023-12-04T05:30:18;95056.34;;;-6.22;51.34
77871;BME280;67067;46.850;7.578;2023-12-04T05:31:20;95057.97;;;-6.21;51.42
77871;BME280;67067;46.850;7.578;2023-12-04T05:32:22;95066.13;;;-6.26;51.48
77871;BME280;67067;46.850;7.578;2023-12-04T05:33:24;95065.69;;;-6.21;51.62
77871;BME280;67067;46.850;7.578;2023-12-04T05:34:28;95062.00;;;-6.18;51.52
77871;BME280;67067;46.850;7.578;2023-12-04T05:35:29;95057.97;;;-6.21;51.53
77871;BME280;67067;46.850;7.578;2023-12-04T05:36:35;95053.81;;;-6.14;51.37
77871;BME280;67067;46.850;7.578;2023-12-04T05:37:37;95060.59;;;-6.13;51.29
77871;BME280;67067;46.850;7.578;2023-12-04T05:38:38;95091.59;;;-6.23;51.82
77871;BME280;67067;46.850;7.578;2023-12-04T05:39:41;95083.75;;;-6.21;51.68
77871;BME280;67067;46.850;7.578;2023-12-04T05:40:42;95052.22;;;-6.15;51.44
77871;BME280;67067;46.850;7.578;2023-12-04T05:41:44;95028.34;;;-6.17;51.33
77871;BME280;67067;46.850;7.578;2023-12-04T05:42:46;95031.53;;;-6.23;51.36
77871;BME280;67067;46.850;7.578;2023-12-04T05:43:48;95038.63;;;-6.25;51.47
77871;BME280;67067;46.850;7.578;2023-12-04T05:44:49;95049.34;;;-6.30;51.71